sensor_id;sensor_type;location;lat;lon;timestamp;P1;durP1;ratioP1;P2;durP2;ratioP2
19566;SDS011;9930;49.240;8.548;2023-11-22T00:00:43;2.95;;;2.70;;
19566;SDS011;9930;49.240;8.548;2023-11-22T00:03:09;2.67;;;2.47;;
19566;SDS011;9930;49.240;8.548;2023-11-22T00:05:35;2.90;;;2.70;;
19566;SDS011;9930;49.240;8.548;2023-11-22T00:08:03;16.83;;;11.07;;
19566;SDS011;9930;49.240;8.548;2023-11-22T00:10:29;5.72;;;5.13;;
19566;SDS011;9930;49.240;8.548;2023-11-22T00:12:59;3.95;;;3.55;;
19566;SDS011;9930;49.240;8.548;2023-11-22T00:15:25;4.25;;;3.85;;
19566;SDS011;9930;49.240;8.548;2023-11-22T00:17:54;3.80;;;3.40;;
19566;SDS011;9930;49.240;8.548;2023-11-22T00:20:31;3.88;;;3.58;;
19566;SDS011;9930;49.240;8.548;2023-11-22T00:22:58;3.75;;;3.35;;
19566;SDS011;9930;49.240;8.548;2023-11-22T00:25:24;3.42;;;3.13;;
19566;SDS011;9930;49.240;8.548;2023-11-22T00:27:52;4.45;;;3.67;;
19566;SDS011;9930;49.240;8.548;2023-11-22T00:30:18;3.65;;;3.28;;
19566;SDS011;9930;49.240;8.548;2023-11-22T00:32:43;4.20;;;3.50;;
19566;SDS011;9930;49.240;8.548;2023-11-22T00:35:09;3.85;;;3.47;;
19566;SDS011;9930;49.240;8.548;2023-11-22T00:37:35;5.13;;;3.80;;
19566;SDS011;9930;49.240;8.548;2023-11-22T00:40:04;4.22;;;3.75;;
19566;SDS011;9930;49.240;8.548;2023-11-22T00:42:39;3.78;;;3.47;;
19566;SDS011;9930;49.240;8.548;2023-11-22T00:45:08;4.40;;;4.03;;
19566;SDS011;9930;49.240;8.548;2023-11-22T00:47:35;4.15;;;3.80;;
19566;SDS011;9930;49.240;8.548;2023-11-22T00:50:04;3.97;;;3.65;;
19566;SDS011;9930;49.240;8.548;2023-11-22T00:52:34;4.15;;;3.75;;
19566;SDS011;9930;49.240;8.548;2023-11-22T00:54:59;3.78;;;3.42;;
19566;SDS011;9930;49.240;8.548;2023-11-22T00:57:27;4.53;;;3.78;;
19566;SDS011;9930;49.240;8.548;2023-11-22T00:59:55;4.45;;;3.88;;
19566;SDS011;9930;49.240;8.548;2023-11-22T01:02:21;3.83;;;3.53;;
19566;SDS011;9930;49.240;8.548;2023-11-22T01:04:47;3.83;;;3.53;;
19566;SDS011;9930;49.240;8.548;2023-11-22T01:07:12;3.58;;;3.28;;
19566;SDS011;9930;49.240;8.548;2023-11-22T01:09:38;3.83;;;3.22;;
19566;SDS011;9930;49.240;8.548;2023-11-22T01:12:07;2.80;;;2.60;;
19566;SDS011;9930;49.240;8.548;2023-11-22T01:14:38;3.22;;;2.92;;
19566;SDS011;9930;49.240;8.548;2023-11-22T01:17:05;2.88;;;2.67;;
19566;SDS011;9930;49.240;8.548;2023-11-22T01:19:31;2.88;;;2.60;;
19566;SDS011;9930;49.240;8.548;2023-11-22T01:21:57;3.00;;;2.80;;
19566;SDS011;9930;49.240;8.548;2023-11-22T01:24:22;4.93;;;2.83;;
19566;SDS011;9930;49.240;8.548;2023-11-22T01:26:48;2.30;;;2.10;;
19566;SDS011;9930;49.240;8.548;2023-11-22T01:29:16;2.60;;;2.40;;
19566;SDS011;9930;49.240;8.548;2023-11-22T01:31:44;2.42;;;2.22;;
19566;SDS011;9930;49.240;8.548;2023-11-22T01:34:12;2.22;;;2.03;;
19566;SDS011;9930;49.240;8.548;2023-11-22T01:36:49;2.40;;;2.20;;
19566;SDS011;9930;49.240;8.548;2023-11-22T01:39:15;2.55;;;2.35;;
19566;SDS011;9930;49.240;8.548;2023-11-22T01:41:44;3.78;;;2.45;;
19566;SDS011;9930;49.240;8.548;2023-11-22T01:44:14;2.28;;;2.08;;
19566;SDS011;9930;49.240;8.548;2023-11-22T01:46:48;2.80;;;2.40;;
19566;SDS011;9930;49.240;8.548;2023-11-22T01:49:16;2.17;;;2.00;;
19566;SDS011;9930;49.240;8.548;2023-11-22T01:51:42;2.53;;;2.00;;
19566;SDS011;9930;49.240;8.548;2023-11-22T01:54:09;2.42;;;2.22;;
19566;SDS011;9930;49.240;8.548;2023-11-22T01:56:38;2.35;;;2.00;;
19566;SDS011;9930;49.240;8.548;2023-11-22T01:59:05;2.63;;;2.42;;
19566;SDS011;9930;49.240;8.548;2023-11-22T02:01:34;2.30;;;2.10;;
19566;SDS011;9930;49.240;8.548;2023-11-22T02:04:02;2.40;;;2.20;;
19566;SDS011;9930;49.240;8.548;2023-11-22T02:06:31;2.38;;;2.13;;
19566;SDS011;9930;49.240;8.548;2023-11-22T02:08:58;2.35;;;2.15;;
19566;SDS011;9930;49.240;8.548;2023-11-22T02:11:23;2.88;;;2.60;;
19566;SDS011;9930;49.240;8.548;2023-11-22T02:13:49;3.03;;;2.78;;
19566;SDS011;9930;49.240;8.548;2023-11-22T02:16:16;3.05;;;2.75;;
19566;SDS011;9930;49.240;8.548;2023-11-22T02:18:44;2.95;;;2.75;;
19566;SDS011;9930;49.240;8.548;2023-11-22T02:21:12;3.53;;;3.22;;
19566;SDS011;9930;49.240;8.548;2023-11-22T02:23:38;3.58;;;3.08;;
19566;SDS011;9930;49.240;8.548;2023-11-22T02:26:05;2.92;;;2.72;;
19566;SDS011;9930;49.240;8.548;2023-11-22T02:28:33;3.63;;;3.00;;
19566;SDS011;9930;49.240;8.548;2023-11-22T02:30:58;3.22;;;2.92;;
19566;SDS011;9930;49.240;8.548;2023-11-22T02:33:28;3.25;;;2.80;;
19566;SDS011;9930;49.240;8.548;2023-11-22T02:35:57;3.33;;;3.00;;
19566;SDS011;9930;49.240;8.548;2023-11-22T02:38:27;3.13;;;2.90;;
19566;SDS011;9930;49.240;8.548;2023-11-22T02:40:55;3.17;;;2.90;;
19566;SDS011;9930;49.240;8.548;2023-11-22T02:43:23;3.00;;;2.80;;
19566;SDS011;9930;49.240;8.548;2023-11-22T02:45:49;3.08;;;2.88;;
19566;SDS011;9930;49.240;8.548;2023-11-22T02:48:17;3.13;;;2.85;;
19566;SDS011;9930;49.240;8.548;2023-11-22T02:50:43;3.20;;;2.95;;
19566;SDS011;9930;49.240;8.548;2023-11-22T02:53:09;3.00;;;2.80;;
19566;SDS011;9930;49.240;8.548;2023-11-22T02:55:35;2.90;;;2.70;;
19566;SDS011;9930;49.240;8.548;2023-11-22T02:58:01;3.22;;;2.97;;
19566;SDS011;9930;49.240;8.548;2023-11-22T03:00:27;3.35;;;3.05;;
19566;SDS011;9930;49.240;8.548;2023-11-22T03:02:54;3.30;;;3.00;;
19566;SDS011;9930;49.240;8.548;2023-11-22T03:05:23;3.30;;;3.00;;
19566;SDS011;9930;49.240;8.548;2023-11-22T03:07:51;3.42;;;3.13;;
19566;SDS011;9930;49.240;8.548;2023-11-22T03:10:17;3.80;;;3.50;;
19566;SDS011;9930;49.240;8.548;2023-11-22T03:12:43;3.20;;;3.00;;
19566;SDS011;9930;49.240;8.548;2023-11-22T03:15:09;3.30;;;3.00;;
19566;SDS011;9930;49.240;8.548;2023-11-22T03:17:41;3.00;;;2.80;;
19566;SDS011;9930;49.240;8.548;2023-11-22T03:20:09;3.67;;;2.90;;
19566;SDS011;9930;49.240;8.548;2023-11-22T03:22:36;3.22;;;2.92;;
19566;SDS011;9930;49.240;8.548;2023-11-22T03:25:05;3.38;;;3.08;;
19566;SDS011;9930;49.240;8.548;2023-11-22T03:27:37;3.25;;;2.80;;
19566;SDS011;9930;49.240;8.548;2023-11-22T03:30:05;2.97;;;2.78;;
19566;SDS011;9930;49.240;8.548;2023-11-22T03:32:36;3.10;;;2.80;;
19566;SDS011;9930;49.240;8.548;2023-11-22T03:35:06;3.30;;;3.00;;
19566;SDS011;9930;49.240;8.548;2023-11-22T03:37:34;3.08;;;2.85;;
19566;SDS011;9930;49.240;8.548;2023-11-22T03:40:00;3.35;;;2.78;;
19566;SDS011;9930;49.240;8.548;2023-11-22T03:42:26;2.70;;;2.50;;
19566;SDS011;9930;49.240;8.548;2023-11-22T03:44:52;2.78;;;2.58;;
19566;SDS011;9930;49.240;8.548;2023-11-22T03:47:19;3.03;;;2.70;;
19566;SDS011;9930;49.240;8.548;2023-11-22T03:49:47;3.22;;;2.92;;
19566;SDS011;9930;49.240;8.548;2023-11-22T03:52:13;2.67;;;2.47;;
19566;SDS011;9930;49.240;8.548;2023-11-22T03:54:41;3.05;;;2.72;;
19566;SDS011;9930;49.240;8.548;2023-11-22T03:57:12;2.90;;;2.70;;
19566;SDS011;9930;49.240;8.548;2023-11-22T03:59:41;2.78;;;2.58;;
19566;SDS011;9930;49.240;8.548;2023-11-22T04:02:12;2.53;;;2.33;;
19566;SDS011;9930;49.240;8.548;2023-11-22T04:04:37;3.13;;;2.42;;
19566;SDS011;9930;49.240;8.548;2023-11-22T04:07:07;2.63;;;2.42;;
19566;SDS011;9930;49.240;8.548;2023-11-22T04:09:39;2.67;;;2.30;;
19566;SDS011;9930;49.240;8.548;2023-11-22T04:12:05;2.67;;;2.47;;
19566;SDS011;9930;49.240;8.548;2023-11-22T04:14:31;2.35;;;2.15;;
19566;SDS011;9930;49.240;8.548;2023-11-22T04:16:57;2.50;;;2.30;;
19566;SDS011;9930;49.240;8.548;2023-11-22T04:19:22;2.60;;;2.40;;
19566;SDS011;9930;49.240;8.548;2023-11-22T04:21:50;2.42;;;2.22;;
19566;SDS011;9930;49.240;8.548;2023-11-22T04:24:16;3.35;;;2.60;;
19566;SDS011;9930;49.240;8.548;2023-11-22T04:26:44;2.53;;;2.33;;
19566;SDS011;9930;49.240;8.548;2023-11-22T04:29:10;2.33;;;2.13;;
19566;SDS011;9930;49.240;8.548;2023-11-22T04:31:36;2.60;;;2.40;;
19566;SDS011;9930;49.240;8.548;2023-11-22T04:34:02;2.83;;;2.40;;
19566;SDS011;9930;49.240;8.548;2023-11-22T04:36:28;2.47;;;2.27;;
19566;SDS011;9930;49.240;8.548;2023-11-22T04:38:54;2.75;;;2.42;;
19566;SDS011;9930;49.240;8.548;2023-11-22T04:41:20;2.60;;;2.40;;
19566;SDS011;9930;49.240;8.548;2023-11-22T04:43:50;2.72;;;2.20;;
19566;SDS011;9930;49.240;8.548;2023-11-22T04:46:15;2.78;;;2.30;;
19566;SDS011;9930;49.240;8.548;2023-11-22T04:48:41;2.80;;;2.60;;
19566;SDS011;9930;49.240;8.548;2023-11-22T04:51:12;3.22;;;2.80;;
19566;SDS011;9930;49.240;8.548;2023-11-22T04:53:41;3.00;;;2.70;;
19566;SDS011;9930;49.240;8.548;2023-11-22T04:56:09;3.23;;;2.90;;
19566;SDS011;9930;49.240;8.548;2023-11-22T04:58:37;3.47;;;2.73;;
19566;SDS011;9930;49.240;8.548;2023-11-22T05:01:06;2.97;;;2.77;;
19566;SDS011;9930;49.240;8.548;2023-11-22T05:03:35;3.42;;;3.13;;
19566;SDS011;9930;49.240;8.548;2023-11-22T05:06:02;3.50;;;3.20;;
19566;SDS011;9930;49.240;8.548;2023-11-22T05:08:29;3.45;;;3.15;;
19566;SDS011;9930;49.240;8.548;2023-11-22T05:10:58;3.33;;;3.03;;
19566;SDS011;9930;49.240;8.548;2023-11-22T05:13:23;3.20;;;2.90;;
19566;SDS011;9930;49.240;8.548;2023-11-22T05:15:51;3.38;;;3.08;;
19566;SDS011;9930;49.240;8.548;2023-11-22T05:18:18;3.37;;;3.07;;
19566;SDS011;9930;49.240;8.548;2023-11-22T05:20:43;3.20;;;2.90;;
19566;SDS011;9930;49.240;8.548;2023-11-22T05:23:13;3.30;;;3.00;;
19566;SDS011;9930;49.240;8.548;2023-11-22T05:25:41;3.17;;;2.87;;
19566;SDS011;9930;49.240;8.548;2023-11-22T05:28:07;3.40;;;3.10;;
19566;SDS011;9930;49.240;8.548;2023-11-22T05:30:32;3.20;;;2.90;;
19566;SDS011;9930;49.240;8.548;2023-11-22T05:33:00;3.83;;;3.40;;
19566;SDS011;9930;49.240;8.548;2023-11-22T05:35:26;3.83;;;3.33;;
19566;SDS011;9930;49.240;8.548;2023-11-22T05:37:53;3.57;;;3.27;;
19566;SDS011;9930;49.240;8.548;2023-11-22T05:40:24;3.60;;;3.27;;
19566;SDS011;9930;49.240;8.548;2023-11-22T05:42:50;3.70;;;3.40;;
19566;SDS011;9930;49.240;8.548;2023-11-22T05:45:16;3.40;;;3.10;;
19566;SDS011;9930;49.240;8.548;2023-11-22T05:47:41;3.10;;;2.80;;
19566;SDS011;9930;49.240;8.548;2023-11-22T05:50:07;2.83;;;2.63;;
19566;SDS011;9930;49.240;8.548;2023-11-22T05:52:35;3.50;;;3.20;;
19566;SDS011;9930;49.240;8.548;2023-11-22T05:55:05;4.00;;;3.60;;
19566;SDS011;9930;49.240;8.548;2023-11-22T05:57:34;4.00;;;3.60;;
19566;SDS011;9930;49.240;8.548;2023-11-22T06:00:02;8.93;;;5.00;;
19566;SDS011;9930;49.240;8.548;2023-11-22T06:02:28;7.93;;;5.43;;
19566;SDS011;9930;49.240;8.548;2023-11-22T06:04:54;7.33;;;5.60;;
19566;SDS011;9930;49.240;8.548;2023-11-22T06:07:19;7.80;;;5.27;;
19566;SDS011;9930;49.240;8.548;2023-11-22T06:09:45;7.40;;;5.60;;
19566;SDS011;9930;49.240;8.548;2023-11-22T06:12:11;7.67;;;5.40;;
19566;SDS011;9930;49.240;8.548;2023-11-22T06:14:39;6.20;;;4.50;;
19566;SDS011;9930;49.240;8.548;2023-11-22T06:17:15;6.23;;;4.10;;
19566;SDS011;9930;49.240;8.548;2023-11-22T06:19:40;4.10;;;3.60;;
19566;SDS011;9930;49.240;8.548;2023-11-22T06:22:09;4.80;;;3.70;;
19566;SDS011;9930;49.240;8.548;2023-11-22T06:24:39;4.37;;;3.97;;
19566;SDS011;9930;49.240;8.548;2023-11-22T06:27:08;6.60;;;5.30;;
19566;SDS011;9930;49.240;8.548;2023-11-22T06:29:35;5.73;;;4.50;;
19566;SDS011;9930;49.240;8.548;2023-11-22T06:32:01;5.47;;;4.10;;
19566;SDS011;9930;49.240;8.548;2023-11-22T06:34:31;4.97;;;4.30;;
19566;SDS011;9930;49.240;8.548;2023-11-22T06:36:59;5.30;;;4.50;;
19566;SDS011;9930;49.240;8.548;2023-11-22T06:39:25;5.80;;;4.23;;
19566;SDS011;9930;49.240;8.548;2023-11-22T06:41:50;5.70;;;4.83;;
19566;SDS011;9930;49.240;8.548;2023-11-22T06:44:16;4.70;;;3.93;;
19566;SDS011;9930;49.240;8.548;2023-11-22T06:46:41;5.37;;;4.50;;
19566;SDS011;9930;49.240;8.548;2023-11-22T06:49:09;4.73;;;4.00;;
19566;SDS011;9930;49.240;8.548;2023-11-22T06:51:35;4.53;;;3.93;;
19566;SDS011;9930;49.240;8.548;2023-11-22T06:54:04;4.00;;;3.60;;
19566;SDS011;9930;49.240;8.548;2023-11-22T06:56:36;3.80;;;3.50;;
19566;SDS011;9930;49.240;8.548;2023-11-22T06:59:05;3.43;;;2.97;;
19566;SDS011;9930;49.240;8.548;2023-11-22T07:01:37;4.37;;;3.80;;
19566;SDS011;9930;49.240;8.548;2023-11-22T07:04:04;5.17;;;3.97;;
19566;SDS011;9930;49.240;8.548;2023-11-22T07:06:34;4.53;;;3.90;;
19566;SDS011;9930;49.240;8.548;2023-11-22T07:09:02;4.97;;;4.00;;
19566;SDS011;9930;49.240;8.548;2023-11-22T07:11:34;4.47;;;3.77;;
19566;SDS011;9930;49.240;8.548;2023-11-22T07:14:03;5.63;;;3.83;;
19566;SDS011;9930;49.240;8.548;2023-11-22T07:16:29;4.17;;;3.70;;
19566;SDS011;9930;49.240;8.548;2023-11-22T07:18:56;6.67;;;4.50;;
19566;SDS011;9930;49.240;8.548;2023-11-22T07:21:24;5.53;;;3.80;;
19566;SDS011;9930;49.240;8.548;2023-11-22T07:23:50;5.87;;;3.63;;
19566;SDS011;9930;49.240;8.548;2023-11-22T07:26:17;4.40;;;3.60;;
19566;SDS011;9930;49.240;8.548;2023-11-22T07:28:45;3.10;;;2.80;;
19566;SDS011;9930;49.240;8.548;2023-11-22T07:31:11;2.97;;;2.77;;
19566;SDS011;9930;49.240;8.548;2023-11-22T07:33:37;3.73;;;2.80;;
19566;SDS011;9930;49.240;8.548;2023-11-22T07:36:06;2.93;;;2.70;;
19566;SDS011;9930;49.240;8.548;2023-11-22T07:38:34;2.83;;;2.57;;
19566;SDS011;9930;49.240;8.548;2023-11-22T07:41:00;3.03;;;2.73;;
19566;SDS011;9930;49.240;8.548;2023-11-22T07:43:26;2.83;;;2.60;;
19566;SDS011;9930;49.240;8.548;2023-11-22T07:45:54;2.90;;;2.70;;
19566;SDS011;9930;49.240;8.548;2023-11-22T07:48:20;4.10;;;3.47;;
19566;SDS011;9930;49.240;8.548;2023-11-22T07:50:47;3.80;;;3.50;;
19566;SDS011;9930;49.240;8.548;2023-11-22T07:53:14;3.70;;;3.37;;
19566;SDS011;9930;49.240;8.548;2023-11-22T07:55:44;3.80;;;3.40;;
19566;SDS011;9930;49.240;8.548;2023-11-22T07:58:10;4.10;;;3.70;;
19566;SDS011;9930;49.240;8.548;2023-11-22T08:00:36;3.93;;;3.63;;
19566;SDS011;9930;49.240;8.548;2023-11-22T08:03:02;3.80;;;3.50;;
19566;SDS011;9930;49.240;8.548;2023-11-22T08:05:31;3.83;;;3.53;;
19566;SDS011;9930;49.240;8.548;2023-11-22T08:08:04;4.30;;;3.90;;
19566;SDS011;9930;49.240;8.548;2023-11-22T08:10:38;4.87;;;4.00;;
19566;SDS011;9930;49.240;8.548;2023-11-22T08:13:05;5.03;;;4.27;;
19566;SDS011;9930;49.240;8.548;2023-11-22T08:18:39;6.00;;;3.87;;
19566;SDS011;9930;49.240;8.548;2023-11-22T08:21:11;3.60;;;3.30;;
19566;SDS011;9930;49.240;8.548;2023-11-22T08:23:39;4.00;;;3.60;;
19566;SDS011;9930;49.240;8.548;2023-11-22T08:26:05;3.37;;;3.07;;
19566;SDS011;9930;49.240;8.548;2023-11-22T08:28:34;4.13;;;3.10;;
19566;SDS011;9930;49.240;8.548;2023-11-22T08:31:00;3.50;;;3.20;;
19566;SDS011;9930;49.240;8.548;2023-11-22T08:33:29;4.60;;;3.40;;
19566;SDS011;9930;49.240;8.548;2023-11-22T08:35:55;3.30;;;3.00;;
19566;SDS011;9930;49.240;8.548;2023-11-22T08:38:24;3.37;;;3.07;;
19566;SDS011;9930;49.240;8.548;2023-11-22T08:40:53;3.30;;;2.90;;
19566;SDS011;9930;49.240;8.548;2023-11-22T08:43:25;3.57;;;3.27;;
19566;SDS011;9930;49.240;8.548;2023-11-22T08:45:50;3.20;;;2.90;;
19566;SDS011;9930;49.240;8.548;2023-11-22T08:48:16;3.30;;;3.00;;
19566;SDS011;9930;49.240;8.548;2023-11-22T08:50:42;3.23;;;2.93;;
19566;SDS011;9930;49.240;8.548;2023-11-22T08:53:12;3.50;;;3.20;;
19566;SDS011;9930;49.240;8.548;2023-11-22T08:55:38;3.70;;;3.40;;
19566;SDS011;9930;49.240;8.548;2023-11-22T08:58:05;3.17;;;2.87;;
19566;SDS011;9930;49.240;8.548;2023-11-22T09:00:30;3.23;;;2.93;;
19566;SDS011;9930;49.240;8.548;2023-11-22T09:02:57;2.97;;;2.73;;
19566;SDS011;9930;49.240;8.548;2023-11-22T09:05:23;2.90;;;2.60;;
19566;SDS011;9930;49.240;8.548;2023-11-22T09:07:56;3.10;;;2.58;;
19566;SDS011;9930;49.240;8.548;2023-11-22T09:10:23;3.47;;;3.10;;
19566;SDS011;9930;49.240;8.548;2023-11-22T09:12:49;3.15;;;2.85;;
19566;SDS011;9930;49.240;8.548;2023-11-22T09:15:16;3.33;;;3.03;;
19566;SDS011;9930;49.240;8.548;2023-11-22T09:17:51;3.30;;;2.80;;
19566;SDS011;9930;49.240;8.548;2023-11-22T09:20:19;2.80;;;2.60;;
19566;SDS011;9930;49.240;8.548;2023-11-22T09:22:45;3.03;;;2.72;;
19566;SDS011;9930;49.240;8.548;2023-11-22T09:25:14;2.75;;;2.55;;
19566;SDS011;9930;49.240;8.548;2023-11-22T09:27:53;2.53;;;2.33;;
19566;SDS011;9930;49.240;8.548;2023-11-22T09:30:31;2.78;;;2.58;;
19566;SDS011;9930;49.240;8.548;2023-11-22T09:33:04;2.70;;;2.50;;
19566;SDS011;9930;49.240;8.548;2023-11-22T09:35:37;2.92;;;2.72;;
19566;SDS011;9930;49.240;8.548;2023-11-22T09:38:05;3.05;;;2.63;;
19566;SDS011;9930;49.240;8.548;2023-11-22T09:40:42;3.03;;;2.72;;
19566;SDS011;9930;49.240;8.548;2023-11-22T09:43:12;3.20;;;2.90;;
19566;SDS011;9930;49.240;8.548;2023-11-22T09:45:47;3.35;;;3.00;;
19566;SDS011;9930;49.240;8.548;2023-11-22T09:48:20;3.10;;;2.80;;
19566;SDS011;9930;49.240;8.548;2023-11-22T09:56:09;3.03;;;2.72;;
19566;SDS011;9930;49.240;8.548;2023-11-22T09:58:41;3.10;;;2.80;;
19566;SDS011;9930;49.240;8.548;2023-11-22T10:01:15;3.00;;;2.80;;
19566;SDS011;9930;49.240;8.548;2023-11-22T10:03:42;3.28;;;2.97;;
19566;SDS011;9930;49.240;8.548;2023-11-22T10:06:08;3.22;;;2.70;;
19566;SDS011;9930;49.240;8.548;2023-11-22T10:08:35;3.47;;;2.70;;
19566;SDS011;9930;49.240;8.548;2023-11-22T10:11:04;3.20;;;2.90;;
19566;SDS011;9930;49.240;8.548;2023-11-22T10:13:30;3.45;;;3.15;;
19566;SDS011;9930;49.240;8.548;2023-11-22T10:15:55;3.13;;;2.90;;
19566;SDS011;9930;49.240;8.548;2023-11-22T10:18:47;3.20;;;2.90;;
19566;SDS011;9930;49.240;8.548;2023-11-22T10:23:54;3.20;;;2.78;;
19566;SDS011;9930;49.240;8.548;2023-11-22T10:26:27;3.35;;;2.90;;
19566;SDS011;9930;49.240;8.548;2023-11-22T10:28:53;2.95;;;2.65;;
19566;SDS011;9930;49.240;8.548;2023-11-22T10:31:21;2.72;;;2.53;;
19566;SDS011;9930;49.240;8.548;2023-11-22T10:33:48;3.15;;;2.85;;
19566;SDS011;9930;49.240;8.548;2023-11-22T10:36:15;2.80;;;2.60;;
19566;SDS011;9930;49.240;8.548;2023-11-22T10:38:41;3.28;;;2.97;;
19566;SDS011;9930;49.240;8.548;2023-11-22T10:41:13;3.35;;;2.90;;
19566;SDS011;9930;49.240;8.548;2023-11-22T10:43:42;3.55;;;3.25;;
19566;SDS011;9930;49.240;8.548;2023-11-22T10:46:10;2.92;;;2.72;;
19566;SDS011;9930;49.240;8.548;2023-11-22T10:48:38;3.22;;;2.92;;
19566;SDS011;9930;49.240;8.548;2023-11-22T10:51:07;3.22;;;2.92;;
19566;SDS011;9930;49.240;8.548;2023-11-22T10:53:43;2.90;;;2.70;;
19566;SDS011;9930;49.240;8.548;2023-11-22T10:56:14;3.30;;;3.00;;
19566;SDS011;9930;49.240;8.548;2023-11-22T10:58:49;3.60;;;3.30;;
19566;SDS011;9930;49.240;8.548;2023-11-22T11:01:27;3.20;;;2.90;;
19566;SDS011;9930;49.240;8.548;2023-11-22T11:06:37;2.97;;;2.78;;
19566;SDS011;9930;49.240;8.548;2023-11-22T11:09:04;3.10;;;2.80;;
19566;SDS011;9930;49.240;8.548;2023-11-22T11:11:32;3.17;;;2.92;;
19566;SDS011;9930;49.240;8.548;2023-11-22T11:13:59;3.78;;;3.47;;
19566;SDS011;9930;49.240;8.548;2023-11-22T11:16:28;3.90;;;3.60;;
19566;SDS011;9930;49.240;8.548;2023-11-22T11:18:59;3.50;;;3.20;;
19566;SDS011;9930;49.240;8.548;2023-11-22T11:21:29;4.07;;;3.67;;
19566;SDS011;9930;49.240;8.548;2023-11-22T11:23:58;3.15;;;2.90;;
19566;SDS011;9930;49.240;8.548;2023-11-22T11:26:27;3.30;;;3.00;;
19566;SDS011;9930;49.240;8.548;2023-11-22T11:28:56;3.58;;;3.28;;
19566;SDS011;9930;49.240;8.548;2023-11-22T11:31:22;3.50;;;3.20;;
19566;SDS011;9930;49.240;8.548;2023-11-22T11:36:25;2.90;;;2.63;;
19566;SDS011;9930;49.240;8.548;2023-11-22T11:39:00;4.68;;;3.42;;
19566;SDS011;9930;49.240;8.548;2023-11-22T11:41:34;3.80;;;3.20;;
19566;SDS011;9930;49.240;8.548;2023-11-22T11:44:02;3.58;;;3.28;;
19566;SDS011;9930;49.240;8.548;2023-11-22T11:46:32;3.47;;;3.15;;
19566;SDS011;9930;49.240;8.548;2023-11-22T11:48:58;3.55;;;3.15;;
19566;SDS011;9930;49.240;8.548;2023-11-22T11:51:25;3.15;;;2.95;;
19566;SDS011;9930;49.240;8.548;2023-11-22T11:53:53;3.20;;;2.90;;
19566;SDS011;9930;49.240;8.548;2023-11-22T11:56:22;18.17;;;10.77;;
19566;SDS011;9930;49.240;8.548;2023-11-22T11:58:51;8.27;;;5.82;;
19566;SDS011;9930;49.240;8.548;2023-11-22T12:01:20;5.22;;;4.65;;
19566;SDS011;9930;49.240;8.548;2023-11-22T12:03:46;4.65;;;4.15;;
19566;SDS011;9930;49.240;8.548;2023-11-22T12:06:16;4.60;;;4.13;;
19566;SDS011;9930;49.240;8.548;2023-11-22T12:08:46;4.40;;;3.47;;
19566;SDS011;9930;49.240;8.548;2023-11-22T12:11:12;3.78;;;3.38;;
19566;SDS011;9930;49.240;8.548;2023-11-22T12:13:43;3.60;;;3.30;;
19566;SDS011;9930;49.240;8.548;2023-11-22T12:16:13;3.33;;;3.03;;
19566;SDS011;9930;49.240;8.548;2023-11-22T12:18:49;3.42;;;3.13;;
19566;SDS011;9930;49.240;8.548;2023-11-22T12:21:18;3.20;;;2.90;;
19566;SDS011;9930;49.240;8.548;2023-11-22T12:23:44;3.25;;;2.88;;
19566;SDS011;9930;49.240;8.548;2023-11-22T12:26:17;3.60;;;3.30;;
19566;SDS011;9930;49.240;8.548;2023-11-22T12:28:46;4.43;;;3.33;;
19566;SDS011;9930;49.240;8.548;2023-11-22T12:31:18;3.70;;;3.40;;
19566;SDS011;9930;49.240;8.548;2023-11-22T12:33:46;3.67;;;3.30;;
19566;SDS011;9930;49.240;8.548;2023-11-22T12:36:15;3.75;;;3.35;;
19566;SDS011;9930;49.240;8.548;2023-11-22T12:38:42;3.53;;;3.22;;
19566;SDS011;9930;49.240;8.548;2023-11-22T12:41:08;3.90;;;3.47;;
19566;SDS011;9930;49.240;8.548;2023-11-22T12:43:35;3.85;;;3.55;;
19566;SDS011;9930;49.240;8.548;2023-11-22T12:48:41;4.10;;;3.70;;
19566;SDS011;9930;49.240;8.548;2023-11-22T12:51:19;5.78;;;3.70;;
19566;SDS011;9930;49.240;8.548;2023-11-22T12:53:59;3.60;;;3.30;;
19566;SDS011;9930;49.240;8.548;2023-11-22T12:56:25;5.40;;;3.90;;
19566;SDS011;9930;49.240;8.548;2023-11-22T12:58:53;4.18;;;3.78;;
19566;SDS011;9930;49.240;8.548;2023-11-22T13:01:21;3.67;;;3.38;;
19566;SDS011;9930;49.240;8.548;2023-11-22T13:03:49;3.85;;;3.55;;
19566;SDS011;9930;49.240;8.548;2023-11-22T13:06:15;4.10;;;3.63;;
19566;SDS011;9930;49.240;8.548;2023-11-22T13:08:43;3.60;;;3.30;;
19566;SDS011;9930;49.240;8.548;2023-11-22T13:11:13;4.00;;;3.60;;
19566;SDS011;9930;49.240;8.548;2023-11-22T13:13:42;4.00;;;3.40;;
19566;SDS011;9930;49.240;8.548;2023-11-22T13:16:07;4.00;;;3.63;;
19566;SDS011;9930;49.240;8.548;2023-11-22T13:18:35;3.50;;;3.20;;
19566;SDS011;9930;49.240;8.548;2023-11-22T13:21:03;3.47;;;3.17;;
19566;SDS011;9930;49.240;8.548;2023-11-22T13:23:30;4.05;;;3.65;;
19566;SDS011;9930;49.240;8.548;2023-11-22T13:26:00;3.50;;;2.88;;
19566;SDS011;9930;49.240;8.548;2023-11-22T13:28:26;3.30;;;3.00;;
19566;SDS011;9930;49.240;8.548;2023-11-22T13:30:57;3.30;;;3.00;;
19566;SDS011;9930;49.240;8.548;2023-11-22T13:33:22;3.72;;;3.25;;
19566;SDS011;9930;49.240;8.548;2023-11-22T13:35:50;3.63;;;3.33;;
19566;SDS011;9930;49.240;8.548;2023-11-22T13:38:16;3.40;;;3.10;;
19566;SDS011;9930;49.240;8.548;2023-11-22T13:40:44;3.25;;;2.85;;
19566;SDS011;9930;49.240;8.548;2023-11-22T13:43:11;2.47;;;2.28;;
19566;SDS011;9930;49.240;8.548;2023-11-22T13:45:42;2.53;;;2.33;;
19566;SDS011;9930;49.240;8.548;2023-11-22T13:48:07;2.78;;;2.47;;
19566;SDS011;9930;49.240;8.548;2023-11-22T13:50:38;2.58;;;2.38;;
19566;SDS011;9930;49.240;8.548;2023-11-22T13:53:05;2.60;;;2.40;;
19566;SDS011;9930;49.240;8.548;2023-11-22T13:55:34;2.70;;;2.50;;
19566;SDS011;9930;49.240;8.548;2023-11-22T13:58:01;2.72;;;2.53;;
19566;SDS011;9930;49.240;8.548;2023-11-22T14:00:28;2.55;;;2.35;;
19566;SDS011;9930;49.240;8.548;2023-11-22T14:03:01;3.42;;;2.97;;
19566;SDS011;9930;49.240;8.548;2023-11-22T14:05:32;3.38;;;3.08;;
19566;SDS011;9930;49.240;8.548;2023-11-22T14:08:03;3.20;;;2.88;;
19566;SDS011;9930;49.240;8.548;2023-11-22T14:10:32;3.50;;;3.20;;
19566;SDS011;9930;49.240;8.548;2023-11-22T14:12:58;4.00;;;3.60;;
19566;SDS011;9930;49.240;8.548;2023-11-22T14:15:25;3.50;;;3.20;;
19566;SDS011;9930;49.240;8.548;2023-11-22T14:17:55;3.47;;;3.17;;
19566;SDS011;9930;49.240;8.548;2023-11-22T14:20:21;3.53;;;3.22;;
19566;SDS011;9930;49.240;8.548;2023-11-22T14:22:47;3.78;;;3.40;;
19566;SDS011;9930;49.240;8.548;2023-11-22T14:25:15;3.72;;;3.20;;
19566;SDS011;9930;49.240;8.548;2023-11-22T14:27:44;3.40;;;3.10;;
19566;SDS011;9930;49.240;8.548;2023-11-22T14:30:13;3.13;;;2.83;;
19566;SDS011;9930;49.240;8.548;2023-11-22T14:32:44;3.40;;;3.10;;
19566;SDS011;9930;49.240;8.548;2023-11-22T14:35:10;3.15;;;2.90;;
19566;SDS011;9930;49.240;8.548;2023-11-22T14:37:39;3.47;;;3.17;;
19566;SDS011;9930;49.240;8.548;2023-11-22T14:40:09;3.13;;;2.92;;
19566;SDS011;9930;49.240;8.548;2023-11-22T14:42:41;4.50;;;4.10;;
19566;SDS011;9930;49.240;8.548;2023-11-22T14:45:10;11.10;;;8.25;;
19566;SDS011;9930;49.240;8.548;2023-11-22T14:47:37;11.82;;;7.85;;
19566;SDS011;9930;49.240;8.548;2023-11-22T14:50:07;6.38;;;5.40;;
19566;SDS011;9930;49.240;8.548;2023-11-22T14:52:40;6.15;;;4.80;;
19566;SDS011;9930;49.240;8.548;2023-11-22T14:55:09;4.22;;;3.83;;
19566;SDS011;9930;49.240;8.548;2023-11-22T14:57:37;3.90;;;3.50;;
19566;SDS011;9930;49.240;8.548;2023-11-22T15:00:03;4.15;;;3.65;;
19566;SDS011;9930;49.240;8.548;2023-11-22T15:02:40;4.75;;;3.80;;
19566;SDS011;9930;49.240;8.548;2023-11-22T15:05:12;4.03;;;3.40;;
19566;SDS011;9930;49.240;8.548;2023-11-22T15:07:38;3.80;;;3.40;;
19566;SDS011;9930;49.240;8.548;2023-11-22T15:10:08;3.58;;;3.25;;
19566;SDS011;9930;49.240;8.548;2023-11-22T15:12:40;3.80;;;3.47;;
19566;SDS011;9930;49.240;8.548;2023-11-22T15:15:08;3.40;;;3.00;;
19566;SDS011;9930;49.240;8.548;2023-11-22T15:17:39;3.65;;;3.35;;
19566;SDS011;9930;49.240;8.548;2023-11-22T15:20:13;3.38;;;3.08;;
19566;SDS011;9930;49.240;8.548;2023-11-22T15:22:41;3.45;;;3.15;;
19566;SDS011;9930;49.240;8.548;2023-11-22T15:25:08;4.20;;;3.80;;